Time;durP1;ratioP1;P1;durP2;ratioP2;P2;SDS_P1;SDS_P2;PMS_P1;PMS_P2;Temp;Humidity;BMP_temperature;BMP_pressure;BME280_temperature;BME280_humidity;BME280_pressure;Samples;Min_cycle;Max_cycle;Signal;HPM_P1;HPM_P2
2022/01/21 00:01:33;;;;;;;12.35;3.67;;;;;;;-1.93;86.42;96682.63;4973754;28;20488;-43
2022/01/21 00:04:01;;;;;;;9.85;3.40;;;;;;;-1.84;86.00;96678.59;4972895;28;20566;-42
2022/01/21 00:06:28;;;;;;;9.38;3.63;;;;;;;-1.88;86.27;96680.09;4985772;28;20129;-43
2022/01/21 00:08:56;;;;;;;5.78;3.15;;;;;;;-1.99;86.44;96694.16;4979390;28;20501;-40
2022/01/21 00:11:25;;;;;;;8.50;3.20;;;;;;;-1.93;86.16;96672.81;4983804;28;20121;-44
2022/01/21 00:13:52;;;;;;;10.45;4.00;;;;;;;-1.95;86.18;96674.09;4991911;28;20054;-44
2022/01/21 00:16:22;;;;;;;10.85;3.22;;;;;;;-1.88;85.77;96672.13;4988901;28;20126;-47
2022/01/21 00:18:58;;;;;;;8.18;3.20;;;;;;;-1.99;85.84;96679.06;4975596;28;20042;-42
2022/01/21 00:32:31;;;;;;;9.45;3.10;;;;;;;-1.98;85.91;96696.59;4960012;28;20073;-42
2022/01/21 00:34:58;;;;;;;8.60;3.70;;;;;;;-1.92;85.40;96687.72;4991091;28;20046;-46
2022/01/21 00:37:25;;;;;;;8.10;3.22;;;;;;;-1.93;85.81;96695.91;4991722;28;20061;-45
2022/01/21 00:39:56;;;;;;;10.00;4.18;;;;;;;-1.90;85.44;96682.97;4975449;28;20051;-41
2022/01/21 00:44:58;;;;;;;9.10;3.05;;;;;;;-1.81;85.19;96690.56;4990044;28;20138;-43
2022/01/21 00:47:26;;;;;;;9.45;3.35;;;;;;;-1.84;85.65;96712.25;4989653;28;20492;-43
2022/01/21 00:49:54;;;;;;;8.52;3.30;;;;;;;-1.81;85.58;96696.69;4971562;28;20487;-42
2022/01/21 00:52:22;;;;;;;10.45;2.60;;;;;;;-1.93;85.45;96694.03;4973470;28;20076;-43
2022/01/21 00:54:49;;;;;;;9.13;3.35;;;;;;;-1.89;85.96;96705.00;4991219;28;20050;-43
2022/01/21 00:57:16;;;;;;;8.45;3.08;;;;;;;-1.86;86.04;96709.03;4992974;28;20046;-43
2022/01/21 00:59:43;;;;;;;8.07;3.22;;;;;;;-1.69;85.26;96700.13;4991768;28;20046;-44
2022/01/21 01:02:10;;;;;;;8.15;3.50;;;;;;;-1.71;84.85;96712.78;4977142;28;20070;-43
2022/01/21 01:04:37;;;;;;;8.40;3.08;;;;;;;-1.89;86.22;96721.69;4991636;28;20536;-43
2022/01/21 01:07:05;;;;;;;14.40;3.88;;;;;;;-1.82;86.16;96711.00;4990324;28;20463;-43
2022/01/21 01:09:32;;;;;;;8.73;3.10;;;;;;;-1.58;85.61;96711.72;4989183;28;20046;-44
2022/01/21 01:20:03;;;;;;;6.75;3.25;;;;;;;-1.65;86.31;96721.69;4971800;28;20051;-46
2022/01/21 01:22:54;;;;;;;9.82;3.20;;;;;;;-1.93;87.44;96730.38;4975472;28;20043;-47
2022/01/21 01:28:07;;;;;;;9.95;3.65;;;;;;;-1.61;86.12;96716.69;4991092;28;20437;-48
2022/01/21 01:30:35;;;;;;;10.55;3.70;;;;;;;-1.55;86.22;96715.75;4990327;28;20496;-45
2022/01/21 01:33:07;;;;;;;6.93;3.20;;;;;;;-1.51;85.70;96716.91;4986185;28;20047;-45
2022/01/21 01:35:35;;;;;;;10.85;3.30;;;;;;;-1.67;86.06;96727.19;4970136;28;20126;-42
2022/01/21 01:51:18;;;;;;;10.82;3.58;;;;;;;-1.66;87.88;96749.22;4973956;28;20045;-43
2022/01/21 01:53:51;;;;;;;11.85;3.85;;;;;;;-1.61;87.85;96748.53;4989689;28;20081;-44
2022/01/21 01:56:26;;;;;;;7.40;3.38;;;;;;;-1.58;87.22;96745.41;4989775;28;20046;-43
2022/01/21 01:58:54;;;;;;;10.50;3.78;;;;;;;-1.62;87.50;96749.59;4990865;28;20113;-42
2022/01/21 02:01:21;;;;;;;6.38;3.65;;;;;;;-1.61;87.56;96749.34;4987417;28;20049;-44
2022/01/21 02:03:48;;;;;;;9.20;3.28;;;;;;;-1.80;87.47;96735.41;4972140;28;20047;-44
2022/01/21 02:06:15;;;;;;;11.65;3.40;;;;;;;-1.67;87.37;96751.06;4974162;28;20562;-44
2022/01/21 02:08:43;;;;;;;9.57;3.72;;;;;;;-1.56;86.96;96740.66;4994751;28;20076;-44
2022/01/21 02:11:10;;;;;;;12.68;3.42;;;;;;;-1.55;86.71;96737.78;4984813;28;20042;-42
2022/01/21 02:13:45;;;;;;;9.45;3.60;;;;;;;-1.62;87.06;96742.44;4994401;28;20061;-44
2022/01/21 02:21:41;;;;;;;13.07;3.42;;;;;;;-1.72;85.74;96731.63;4989759;28;20039;-42
2022/01/21 02:24:19;;;;;;;13.15;3.72;;;;;;;-1.52;85.25;96737.31;4994730;28;20110;-42
2022/01/21 02:26:47;;;;;;;5.55;2.90;;;;;;;-1.38;85.10;96734.41;4993692;28;20042;-44
2022/01/21 02:29:26;;;;;;;7.85;3.13;;;;;;;-1.49;84.85;96725.44;4994046;28;20045;-44
2022/01/21 02:31:57;;;;;;;12.70;4.05;;;;;;;-1.45;84.45;96729.22;4989041;28;20066;-42
2022/01/21 02:34:26;;;;;;;8.82;3.88;;;;;;;-1.59;85.51;96733.16;4974908;28;20129;-42
2022/01/21 02:36:53;;;;;;;10.07;3.92;;;;;;;-1.65;85.32;96725.13;4973522;28;20043;-42
2022/01/21 02:39:20;;;;;;;9.98;2.95;;;;;;;-1.59;85.34;96726.03;4978898;28;20125;-44
2022/01/21 02:41:47;;;;;;;9.13;3.08;;;;;;;-1.68;84.77;96732.75;4989303;28;20496;-44
2022/01/21 02:44:17;;;;;;;6.82;3.03;;;;;;;-1.46;84.54;96740.91;4977471;28;20416;-43
2022/01/21 02:46:48;;;;;;;10.07;3.67;;;;;;;-1.58;84.90;96726.84;4992818;28;20046;-44
2022/01/21 02:49:16;;;;;;;9.55;3.45;;;;;;;-1.53;84.46;96726.94;4989234;28;20049;-46
2022/01/21 02:51:43;;;;;;;5.88;3.03;;;;;;;-1.66;84.89;96735.97;4993451;28;20377;-45
2022/01/21 02:54:10;;;;;;;12.68;3.15;;;;;;;-1.55;84.49;96727.19;4977271;28;20043;-43
2022/01/21 02:56:39;;;;;;;8.60;3.00;;;;;;;-1.55;84.28;96737.00;4993433;28;20511;-46
2022/01/21 02:59:08;;;;;;;9.30;3.20;;;;;;;-1.41;83.84;96739.13;4976712;28;20080;-43
2022/01/21 03:01:37;;;;;;;10.05;3.35;;;;;;;-1.33;83.17;96739.78;4992087;28;20496;-43
2022/01/21 03:04:06;;;;;;;9.02;3.38;;;;;;;-1.66;84.50;96736.78;4992043;28;20499;-44
2022/01/21 03:06:36;;;;;;;10.60;3.30;;;;;;;-1.39;83.57;96738.91;4992393;28;20126;-43
2022/01/21 03:09:06;;;;;;;6.72;3.25;;;;;;;-1.49;83.77;96730.75;4992126;28;20132;-43
2022/01/21 03:11:34;;;;;;;11.75;4.95;;;;;;;-1.39;83.46;96741.56;4992123;28;20100;-43
2022/01/21 03:14:01;;;;;;;8.70;3.17;;;;;;;-1.28;83.04;96753.97;4992218;28;20049;-43
2022/01/21 03:16:28;;;;;;;9.60;3.33;;;;;;;-1.48;84.46;96745.63;4991993;28;20081;-43
2022/01/21 03:18:55;;;;;;;6.68;3.67;;;;;;;-1.35;83.83;96752.50;4980829;28;20086;-46
2022/01/21 03:21:23;;;;;;;12.57;3.03;;;;;;;-1.40;83.59;96750.53;4982846;28;20195;-44
2022/01/21 03:23:52;;;;;;;11.35;3.60;;;;;;;-1.34;83.47;96760.22;4988276;28;20077;-43
2022/01/21 03:26:25;;;;;;;7.80;3.17;;;;;;;-1.49;83.99;96765.25;4980295;28;20042;-42
2022/01/21 03:28:58;;;;;;;11.93;3.33;;;;;;;-1.41;83.88;96759.56;4976420;28;20046;-44
2022/01/21 03:31:30;;;;;;;11.23;3.45;;;;;;;-1.61;83.77;96764.47;4988305;28;20114;-44
2022/01/21 03:33:59;;;;;;;4.88;2.53;;;;;;;-1.61;84.21;96769.78;4973561;28;20150;-43
2022/01/21 03:36:28;;;;;;;11.43;3.90;;;;;;;-1.53;84.10;96761.44;4991812;28;20046;-43
2022/01/21 03:38:55;;;;;;;9.20;3.05;;;;;;;-1.45;84.19;96771.69;4991723;28;20457;-43
2022/01/21 03:41:22;;;;;;;8.18;2.97;;;;;;;-1.58;84.44;96761.34;4991511;28;20388;-42
2022/01/21 03:43:50;;;;;;;7.50;3.30;;;;;;;-1.40;83.85;96769.13;4991428;28;20046;-43
2022/01/21 03:46:18;;;;;;;7.75;3.38;;;;;;;-1.44;83.82;96758.16;4991347;28;20050;-41
2022/01/21 03:48:48;;;;;;;7.40;3.08;;;;;;;-1.57;84.06;96768.25;4991470;28;20050;-42
2022/01/21 03:51:18;;;;;;;7.35;3.17;;;;;;;-1.56;84.79;96769.84;4989795;28;20444;-45
2022/01/21 03:53:46;;;;;;;8.23;3.28;;;;;;;-1.65;84.79;96772.09;4987760;28;20114;-42
2022/01/21 03:56:15;;;;;;;9.18;3.22;;;;;;;-1.71;84.85;96773.81;4990967;28;20496;-43
2022/01/21 03:58:42;;;;;;;8.73;5.03;;;;;;;-1.47;84.23;96777.22;4975748;28;20477;-43
2022/01/21 04:01:15;;;;;;;12.27;3.30;;;;;;;-1.47;84.18;96779.06;4990703;28;20099;-42
2022/01/21 04:03:43;;;;;;;8.63;3.37;;;;;;;-1.35;83.64;96771.88;5016645;23;20050;-39
2022/01/21 04:06:10;;;;;;;9.35;3.08;;;;;;;-1.61;84.84;96767.13;4988760;28;20055;-39
2022/01/21 04:08:37;;;;;;;9.10;3.10;;;;;;;-1.64;85.13;96768.38;4973775;28;20134;-40
2022/01/21 04:11:04;;;;;;;10.18;3.65;;;;;;;-1.48;84.33;96772.97;4955375;28;20049;-39
2022/01/21 04:13:36;;;;;;;7.50;3.08;;;;;;;-1.91;86.20;96771.53;4966356;28;20235;-39
2022/01/21 04:16:05;;;;;;;10.68;3.65;;;;;;;-1.69;85.45;96779.72;4971402;28;20042;-41
2022/01/21 04:18:33;;;;;;;11.18;3.33;;;;;;;-1.47;84.77;96776.41;4972985;28;20118;-40
2022/01/21 04:21:04;;;;;;;11.82;3.10;;;;;;;-1.55;85.45;96774.16;4988218;28;20483;-42
2022/01/21 04:23:33;;;;;;;10.40;3.63;;;;;;;-1.49;84.92;96775.88;4971740;28;20090;-41
2022/01/21 04:26:03;;;;;;;9.23;4.20;;;;;;;-1.45;84.47;96769.84;4956292;28;20047;-43
2022/01/21 04:28:31;;;;;;;11.73;3.78;;;;;;;-1.34;84.22;96767.38;4988552;28;20047;-41
2022/01/21 04:31:01;;;;;;;9.35;3.63;;;;;;;-1.57;85.60;96770.91;4985113;28;20449;-40
2022/01/21 04:33:36;;;;;;;10.25;3.90;;;;;;;-1.70;86.72;96775.41;4952789;29;20133;-42
2022/01/21 04:36:04;;;;;;;9.55;3.33;;;;;;;-1.51;85.99;96780.59;4970491;28;20049;-41
2022/01/21 04:38:34;;;;;;;7.57;3.63;;;;;;;-1.62;85.97;96776.13;4988089;28;20045;-41
2022/01/21 04:49:00;;;;;;;8.50;3.60;;;;;;;-1.83;88.14;96793.44;4967096;28;20129;-41
2022/01/21 04:51:29;;;;;;;9.07;3.92;;;;;;;-1.76;87.72;96792.28;4973787;28;20078;-42
2022/01/21 04:53:58;;;;;;;9.15;4.03;;;;;;;-1.57;87.01;96795.59;4967629;28;20049;-41
2022/01/21 04:56:28;;;;;;;9.43;3.83;;;;;;;-1.53;86.59;96799.38;4969558;28;20058;-41
2022/01/21 04:58:56;;;;;;;8.95;4.05;;;;;;;-1.89;88.67;96785.34;4956096;28;20051;-43
2022/01/21 05:01:24;;;;;;;9.80;4.70;;;;;;;-1.75;88.34;96785.94;4963713;28;20078;-42
2022/01/21 05:03:53;;;;;;;9.20;3.88;;;;;;;-1.73;87.62;96799.75;4952571;29;20098;-41
2022/01/21 05:06:20;;;;;;;10.57;3.55;;;;;;;-1.96;89.71;96803.25;4968230;28;20081;-41
2022/01/21 05:08:53;;;;;;;10.07;3.70;;;;;;;-1.63;87.84;96803.69;4988760;28;20093;-39
2022/01/21 05:11:23;;;;;;;9.60;3.60;;;;;;;-1.68;87.71;96802.53;4984345;28;20465;-41
2022/01/21 05:14:00;;;;;;;10.30;4.20;;;;;;;-1.55;87.26;96806.78;4936730;29;20054;-39
2022/01/21 05:16:35;;;;;;;14.00;4.47;;;;;;;-1.84;88.91;96813.84;4971934;28;20055;-40
2022/01/21 05:19:14;;;;;;;8.60;4.18;;;;;;;-1.89;89.87;96822.50;4973095;28;20055;-42
2022/01/21 05:21:59;;;;;;;10.25;4.57;;;;;;;-1.65;87.65;96817.19;4956316;28;20046;-41
2022/01/21 05:24:32;;;;;;;9.65;3.40;;;;;;;-1.99;90.33;96826.75;4972122;28;20050;-41
2022/01/21 05:27:01;;;;;;;11.68;3.95;;;;;;;-2.01;89.91;96816.41;4988444;28;20865;-40
2022/01/21 05:29:36;;;;;;;11.27;3.80;;;;;;;-1.93;89.88;96808.09;4990403;28;20057;-39
2022/01/21 05:32:23;;;;;;;7.97;4.05;;;;;;;-1.96;89.88;96821.00;4983683;28;20050;-40
2022/01/21 05:35:12;;;;;;;10.05;4.18;;;;;;;-1.53;87.52;96819.81;4969077;28;20071;-39
2022/01/21 05:37:45;;;;;;;11.25;3.75;;;;;;;-1.76;88.59;96825.94;4971555;28;20089;-39
2022/01/21 05:40:21;;;;;;;10.05;4.25;;;;;;;-1.65;87.87;96844.53;4987984;28;20046;-40
2022/01/21 05:43:05;;;;;;;11.10;3.70;;;;;;;-1.96;89.12;96858.94;4974708;28;20394;-38
2022/01/21 05:49:15;;;;;;;1.98;1.00;;;;;;;-3.00;89.38;96869.00;4979398;28;20869;-39
2022/01/21 05:52:15;;;;;;;6.53;2.50;;;;;;;-2.83;91.00;96870.03;4975573;28;20057;-40
2022/01/21 05:55:18;;;;;;;3.72;1.40;;;;;;;-2.99;91.86;96875.94;4993451;28;20105;-39
2022/01/21 05:58:15;;;;;;;7.88;1.50;;;;;;;-3.07;92.30;96869.09;4973472;28;20062;-40
2022/01/21 06:00:46;;;;;;;7.18;1.55;;;;;;;-3.14;92.09;96884.25;4975161;28;20038;-41
2022/01/21 06:03:15;;;;;;;3.22;1.60;;;;;;;-3.09;92.55;96892.34;4992006;28;20039;-38
2022/01/21 06:05:43;;;;;;;5.00;1.60;;;;;;;-3.03;92.72;96888.00;4990533;28;20193;-40
2022/01/21 06:08:10;;;;;;;3.97;1.60;;;;;;;-3.16;93.42;96894.25;4975755;28;20155;-40
2022/01/21 06:10:37;;;;;;;5.32;2.10;;;;;;;-3.19;93.63;96886.75;4976821;28;20039;-40
2022/01/21 06:13:04;;;;;;;4.75;1.45;;;;;;;-3.09;93.18;96900.28;4974129;28;20043;-41
2022/01/21 06:15:31;;;;;;;6.70;1.70;;;;;;;-2.95;93.18;96903.59;4975071;28;20068;-42
2022/01/21 06:17:58;;;;;;;3.70;1.35;;;;;;;-2.90;91.29;96916.16;4965726;28;20408;-40
2022/01/21 06:20:25;;;;;;;4.88;1.85;;;;;;;-2.97;91.62;96921.53;4959243;28;20126;-41
2022/01/21 06:22:52;;;;;;;7.60;1.80;;;;;;;-2.65;90.55;96900.94;4975411;28;20514;-40
2022/01/21 06:25:19;;;;;;;5.22;1.55;;;;;;;-2.97;91.14;96905.63;4975092;28;20480;-43
2022/01/21 06:27:46;;;;;;;5.78;1.65;;;;;;;-2.87;91.60;96915.69;4976095;28;20050;-42
2022/01/21 06:30:13;;;;;;;5.05;1.90;;;;;;;-2.96;91.45;96927.63;4975515;28;20111;-40
2022/01/21 06:32:41;;;;;;;8.27;2.10;;;;;;;-2.97;91.81;96933.97;4975442;28;20045;-43
2022/01/21 06:35:10;;;;;;;4.63;2.00;;;;;;;-2.89;92.10;96925.72;4974305;28;20065;-41
2022/01/21 06:37:38;;;;;;;5.47;2.00;;;;;;;-2.95;91.43;96922.13;4975790;28;20042;-42
2022/01/21 06:40:07;;;;;;;6.45;1.83;;;;;;;-2.98;90.91;96921.75;4975841;28;20054;-42
2022/01/21 06:42:35;;;;;;;8.30;2.28;;;;;;;-2.72;91.36;96908.19;4975708;28;20069;-44
2022/01/21 06:45:04;;;;;;;6.82;1.80;;;;;;;-2.92;90.79;96919.03;4984497;28;20575;-41
2022/01/21 06:47:32;;;;;;;4.45;1.67;;;;;;;-2.88;90.96;96924.69;4975376;28;20062;-39
2022/01/21 06:49:59;;;;;;;7.65;2.53;;;;;;;-2.96;91.31;96924.97;4977359;28;20070;-40
2022/01/21 06:52:28;;;;;;;7.40;2.20;;;;;;;-2.92;91.15;96923.53;4971027;28;20040;-41
2022/01/21 06:54:56;;;;;;;8.48;2.50;;;;;;;-2.78;90.10;96926.81;4957929;28;20051;-39
2022/01/21 06:57:23;;;;;;;7.00;2.30;;;;;;;-2.86;89.21;96933.19;4957588;28;20484;-39
2022/01/21 06:59:50;;;;;;;12.20;2.58;;;;;;;-2.90;89.33;96942.63;4975014;28;20130;-41
2022/01/21 07:02:18;;;;;;;6.20;2.35;;;;;;;-2.90;89.33;96934.69;4974925;28;20047;-41
2022/01/21 07:04:49;;;;;;;8.88;2.67;;;;;;;-2.97;89.43;96940.06;4989783;28;20133;-43
2022/01/21 07:07:20;;;;;;;5.97;2.20;;;;;;;-2.55;87.54;96947.31;4955700;28;20094;-39
2022/01/21 07:09:47;;;;;;;7.25;2.33;;;;;;;-2.20;86.64;96939.50;4957077;28;20130;-41
2022/01/21 07:12:14;;;;;;;6.28;2.30;;;;;;;-1.79;84.62;96938.63;4974542;28;20050;-40
2022/01/21 07:14:40;;;;;;;10.07;2.30;;;;;;;-1.62;84.35;96938.00;4974783;28;20588;-40
2022/01/21 07:17:08;;;;;;;8.07;2.47;;;;;;;-1.55;83.90;96955.41;4974961;28;20058;-41
2022/01/21 07:19:35;;;;;;;11.50;2.58;;;;;;;-1.80;84.38;96957.44;4974547;28;20042;-42
2022/01/21 07:22:03;;;;;;;6.32;2.20;;;;;;;-2.10;85.94;96960.97;4971335;28;20070;-39
2022/01/21 07:24:30;;;;;;;6.75;2.83;;;;;;;-1.57;83.86;96959.31;4954842;28;21013;-39
2022/01/21 07:26:57;;;;;;;9.73;2.97;;;;;;;-1.89;84.16;96967.56;4970850;28;20059;-37
2022/01/21 07:29:24;;;;;;;9.45;2.85;;;;;;;-1.43;83.66;96964.19;4989622;28;20148;-40
2022/01/21 07:31:54;;;;;;;7.50;2.65;;;;;;;-1.68;83.87;96956.44;4972405;28;20074;-38
2022/01/21 07:34:22;;;;;;;11.68;3.33;;;;;;;-1.63;83.69;96978.81;4962944;28;20471;-39
2022/01/21 07:36:49;;;;;;;5.40;2.97;;;;;;;-2.20;86.60;96977.41;4973669;28;20069;-40
2022/01/21 07:39:17;;;;;;;13.45;3.35;;;;;;;-2.14;87.20;96973.84;4974803;28;20039;-41
2022/01/21 07:41:44;;;;;;;9.88;3.28;;;;;;;-1.52;84.17;96968.22;4968639;28;20045;-42
2022/01/21 07:44:12;;;;;;;8.18;3.35;;;;;;;-1.10;82.69;96962.78;4973775;28;20053;-42
2022/01/21 07:46:41;;;;;;;17.20;3.67;;;;;;;-1.45;83.36;96965.44;4973405;28;20482;-39
2022/01/21 07:49:09;;;;;;;17.65;4.22;;;;;;;-1.31;83.34;96969.47;4964720;28;20145;-41
2022/01/21 07:51:37;;;;;;;10.07;3.88;;;;;;;-1.68;85.68;96974.19;4973722;28;20043;-40
2022/01/21 07:54:04;;;;;;;9.30;3.20;;;;;;;-2.18;87.83;96971.88;4973126;28;20046;-39
2022/01/21 07:56:33;;;;;;;7.72;3.30;;;;;;;-2.46;88.56;96975.91;4987834;28;20073;-39
2022/01/21 07:59:06;;;;;;;7.72;3.42;;;;;;;-1.95;87.03;96971.13;4990576;28;20074;-39
2022/01/21 08:01:33;;;;;;;7.88;3.70;;;;;;;-1.72;85.11;96965.09;4975182;28;20118;-40
2022/01/21 08:04:00;;;;;;;9.35;3.80;;;;;;;-1.63;84.13;96971.66;4969185;28;20074;-43
2022/01/21 08:06:27;;;;;;;7.63;3.50;;;;;;;-1.93;86.23;96969.88;4971941;28;20049;-40
2022/01/21 08:08:54;;;;;;;12.68;4.88;;;;;;;-1.74;84.89;96970.59;4974978;28;20047;-43
2022/01/21 08:11:22;;;;;;;13.77;4.53;;;;;;;-2.04;87.04;96969.84;4961398;28;20035;-40
2022/01/21 08:13:50;;;;;;;11.07;4.28;;;;;;;-1.95;86.80;96973.78;4955449;28;20126;-42
2022/01/21 08:16:17;;;;;;;11.48;4.57;;;;;;;-1.91;86.66;96977.63;4968776;28;20504;-41
2022/01/21 08:18:45;;;;;;;12.32;4.75;;;;;;;-1.78;85.65;96977.41;4968569;28;20439;-42
2022/01/21 08:21:18;;;;;;;10.55;4.72;;;;;;;-1.99;86.94;96969.97;4971937;28;20106;-41
2022/01/21 08:23:51;;;;;;;9.88;4.65;;;;;;;-1.85;85.70;96967.91;4959504;28;20073;-41
2022/01/21 08:26:21;;;;;;;10.57;4.40;;;;;;;-1.65;85.25;96958.63;4972960;28;20047;-41
2022/01/21 08:28:49;;;;;;;8.80;4.45;;;;;;;-1.51;84.44;96961.06;4973398;28;20506;-41
2022/01/21 08:31:17;;;;;;;13.32;4.40;;;;;;;-1.60;84.92;96957.13;4973184;28;20408;-41
2022/01/21 08:33:44;;;;;;;14.27;4.72;;;;;;;-1.68;84.36;96961.72;4985606;28;20039;-41
2022/01/21 08:36:11;;;;;;;10.75;4.93;;;;;;;-1.62;84.65;96969.84;4972352;28;20043;-43
2022/01/21 08:38:38;;;;;;;16.00;4.43;;;;;;;-1.73;84.48;96968.75;4956635;28;20043;-41
2022/01/21 08:41:06;;;;;;;15.65;4.53;;;;;;;-1.82;85.05;96970.94;4967550;28;20049;-44
2022/01/21 08:43:33;;;;;;;16.50;5.20;;;;;;;-1.45;84.06;96970.75;4972112;28;20429;-42
2022/01/21 08:46:00;;;;;;;12.93;4.32;;;;;;;-1.58;84.75;96960.38;4975874;28;20511;-41
2022/01/21 08:48:27;;;;;;;12.88;4.40;;;;;;;-1.54;83.89;96969.47;4967959;28;20047;-43
2022/01/21 08:51:00;;;;;;;14.65;5.35;;;;;;;-1.77;85.48;96968.41;4970129;28;20070;-41
2022/01/21 08:53:36;;;;;;;13.27;4.40;;;;;;;-1.35;83.36;96970.19;4972751;28;20126;-40
2022/01/21 08:56:06;;;;;;;18.02;4.70;;;;;;;-1.78;84.90;96982.72;4971530;28;20401;-40
2022/01/21 08:58:34;;;;;;;14.77;4.28;;;;;;;-1.43;82.97;96979.28;4972870;28;20046;-39
2022/01/21 09:01:01;;;;;;;10.15;4.15;;;;;;;-1.60;83.45;96970.38;4970805;28;20099;-40
2022/01/21 09:03:29;;;;;;;15.68;4.10;;;;;;;-1.85;85.24;96955.50;4972635;28;20078;-38
2022/01/21 09:05:56;;;;;;;13.13;4.20;;;;;;;-1.58;83.47;96949.75;4967340;28;20049;-41
2022/01/21 09:08:25;;;;;;;12.07;4.90;;;;;;;-1.28;82.63;96974.34;4970902;28;20689;-40
2022/01/21 09:10:54;;;;;;;11.30;4.50;;;;;;;-1.61;83.65;96971.44;4973049;28;20089;-39
2022/01/21 09:13:23;;;;;;;11.38;4.53;;;;;;;-2.06;85.70;96970.06;4972750;28;20050;-39
2022/01/21 09:15:50;;;;;;;13.73;4.30;;;;;;;-1.75;84.26;96976.97;4974429;28;20077;-43
2022/01/21 09:18:19;;;;;;;9.27;3.97;;;;;;;-1.41;82.94;96975.38;4976557;28;20461;-40
2022/01/21 09:20:47;;;;;;;9.48;3.97;;;;;;;-1.21;82.16;96971.56;4984351;28;20151;-39
2022/01/21 09:23:14;;;;;;;11.07;4.00;;;;;;;-1.61;83.39;96968.78;4977317;28;20493;-39
2022/01/21 09:25:41;;;;;;;11.77;4.22;;;;;;;-1.23;81.86;96971.81;4977558;28;20085;-43
2022/01/21 09:28:09;;;;;;;13.55;4.65;;;;;;;-1.31;82.67;96982.75;4977229;28;20042;-41
2022/01/21 09:30:36;;;;;;;11.73;5.35;;;;;;;-1.31;81.67;96974.78;4976624;28;20487;-43
2022/01/21 09:33:03;;;;;;;11.98;4.65;;;;;;;-1.09;81.74;96984.84;4977024;28;20047;-42
2022/01/21 09:35:30;;;;;;;16.80;4.50;;;;;;;-1.36;81.71;96973.88;4976036;28;20463;-38
2022/01/21 09:37:57;;;;;;;15.82;3.92;;;;;;;-1.37;82.18;96981.03;4975442;28;20123;-40
2022/01/21 09:40:47;;;;;;;11.38;4.20;;;;;;;-1.45;81.27;96974.22;4961098;28;20031;-39
2022/01/21 09:43:16;;;;;;;12.40;3.92;;;;;;;-1.09;80.26;96979.53;4957193;28;20054;-40
2022/01/21 09:45:47;;;;;;;7.72;3.25;;;;;;;-1.02;80.01;96988.19;4974749;28;20053;-41
2022/01/21 09:48:21;;;;;;;10.90;3.72;;;;;;;-1.14;80.34;96982.88;4974492;28;20150;-39
2022/01/21 09:50:51;;;;;;;11.25;3.60;;;;;;;-1.29;81.70;96986.00;4975664;28;20125;-40
2022/01/21 09:53:44;;;;;;;7.35;3.17;;;;;;;-1.72;81.70;96992.44;4976475;28;20125;-40
2022/01/21 09:56:14;;;;;;;10.55;3.47;;;;;;;-0.98;79.76;97002.59;4975726;28;20072;-39
2022/01/21 09:58:45;;;;;;;11.45;3.45;;;;;;;-0.75;79.10;96999.94;4975883;28;20051;-40
2022/01/21 10:01:15;;;;;;;11.60;3.60;;;;;;;-0.63;78.61;97009.75;4975433;28;20047;-40
2022/01/21 10:03:43;;;;;;;13.98;3.42;;;;;;;-0.87;78.56;97014.28;4974927;28;20039;-40
2022/01/21 10:06:12;;;;;;;9.43;3.47;;;;;;;-1.41;80.77;97015.19;4975342;28;20047;-40
2022/01/21 10:08:41;;;;;;;9.43;3.20;;;;;;;-1.66;79.23;97017.22;4973672;28;20069;-40
2022/01/21 10:11:09;;;;;;;8.80;2.70;;;;;;;-1.84;79.71;97004.03;4975494;28;20065;-44
2022/01/21 10:13:37;;;;;;;8.93;3.00;;;;;;;-1.55;79.92;97007.69;4976790;28;20157;-40
2022/01/21 10:16:05;;;;;;;9.52;3.00;;;;;;;-0.98;77.99;97006.06;4975768;28;20129;-42
2022/01/21 10:18:36;;;;;;;9.38;2.83;;;;;;;-0.98;78.48;97007.91;4960864;28;20051;-37
2022/01/21 10:21:07;;;;;;;10.02;3.65;;;;;;;-0.67;77.11;97011.25;4972615;28;20069;-37
2022/01/21 10:23:36;;;;;;;8.32;2.90;;;;;;;-1.30;77.42;97000.31;4975820;28;20042;-39
2022/01/21 10:26:08;;;;;;;11.18;3.13;;;;;;;-0.77;76.85;97006.53;4975284;28;20097;-38
2022/01/21 10:28:38;;;;;;;5.50;2.65;;;;;;;-1.23;77.08;97011.63;4956617;28;20080;-41
2022/01/21 10:31:10;;;;;;;11.43;3.35;;;;;;;-0.90;76.74;97015.56;4963284;28;20106;-40
2022/01/21 10:33:53;;;;;;;8.57;3.00;;;;;;;-0.71;75.66;97009.06;4977147;28;20444;-40
2022/01/21 10:36:27;;;;;;;9.95;3.60;;;;;;;-0.66;75.99;97011.00;4975036;28;20047;-39
2022/01/21 10:39:09;;;;;;;10.63;3.05;;;;;;;-0.68;75.64;97010.44;4973466;28;20131;-37
2022/01/21 10:41:41;;;;;;;10.32;4.03;;;;;;;-0.80;76.90;97015.78;4973203;28;20445;-40
2022/01/21 10:44:13;;;;;;;8.73;3.63;;;;;;;-0.86;77.94;97016.69;4969382;28;20049;-41
2022/01/21 10:46:46;;;;;;;8.40;3.40;;;;;;;-0.75;77.75;97018.56;4974951;28;20049;-40
2022/01/21 10:49:15;;;;;;;9.65;3.38;;;;;;;-1.11;79.26;97018.78;4966980;28;20039;-40
2022/01/21 10:51:49;;;;;;;10.75;3.65;;;;;;;-1.29;80.92;97011.75;4973261;28;20045;-41
2022/01/21 10:54:29;;;;;;;11.38;3.40;;;;;;;-1.56;81.73;97017.50;4975176;28;20114;-40
2022/01/21 10:57:06;;;;;;;7.60;3.10;;;;;;;-1.52;81.13;97017.84;4975305;28;20074;-40
2022/01/21 11:00:07;;;;;;;9.00;3.20;;;;;;;-1.51;80.80;97019.44;4974341;28;20441;-40
2022/01/21 11:02:46;;;;;;;7.75;3.35;;;;;;;-1.11;78.72;97013.47;4967705;28;20047;-40
2022/01/21 11:05:26;;;;;;;10.55;3.95;;;;;;;-1.03;78.04;97015.78;4956329;28;20070;-41
2022/01/21 11:08:10;;;;;;;6.82;2.83;;;;;;;-1.55;78.49;97007.69;4975307;28;20145;-41
2022/01/21 11:10:40;;;;;;;7.63;3.30;;;;;;;-1.30;78.47;97021.56;4974647;28;20058;-41
2022/01/21 11:13:15;;;;;;;5.95;1.77;;;;;;;-1.69;78.31;97017.66;4960940;28;20086;-40
2022/01/21 11:16:06;;;;;;;8.75;2.47;;;;;;;-1.60;78.55;97012.84;4956850;28;20078;-40
2022/01/21 11:19:07;;;;;;;7.68;2.33;;;;;;;-1.67;77.30;97005.00;4973023;28;20038;-40
2022/01/21 11:21:53;;;;;;;8.02;2.00;;;;;;;-1.96;78.45;97011.94;4966678;28;20097;-41
2022/01/21 11:24:23;;;;;;;7.82;2.72;;;;;;;-1.80;78.57;97013.16;4965087;28;20527;-40
2022/01/21 11:27:10;;;;;;;10.10;3.10;;;;;;;-1.32;77.83;97002.38;4970986;28;20057;-40
2022/01/21 11:29:38;;;;;;;9.35;3.00;;;;;;;-1.31;76.34;97001.34;4964810;28;20127;-43
2022/01/21 11:32:06;;;;;;;7.22;3.10;;;;;;;-1.18;76.67;96992.34;4966949;28;20106;-40
2022/01/21 11:34:33;;;;;;;8.18;2.90;;;;;;;-0.97;76.17;96993.63;4972632;28;20519;-43
2022/01/21 11:37:02;;;;;;;11.57;2.90;;;;;;;-0.48;71.17;96997.56;4972254;28;20087;-42
2022/01/21 11:39:31;;;;;;;7.47;3.00;;;;;;;0.37;72.48;96985.28;4973720;28;20039;-40
2022/01/21 11:42:01;;;;;;;9.25;2.58;;;;;;;0.31;67.67;96988.09;4974084;28;20039;-41
2022/01/21 11:44:30;;;;;;;9.25;2.70;;;;;;;0.77;68.73;96978.16;4965886;28;20054;-41
2022/01/21 11:47:13;;;;;;;7.57;2.55;;;;;;;0.49;66.39;96963.91;4974540;28;20066;-41
2022/01/21 11:49:52;;;;;;;9.30;2.95;;;;;;;1.45;65.79;96981.50;4962616;28;20067;-41
2022/01/21 11:52:20;;;;;;;5.90;2.05;;;;;;;1.25;66.67;96985.50;4969555;28;20062;-41
2022/01/21 11:54:49;;;;;;;5.30;2.40;;;;;;;1.72;64.16;96971.66;4964161;28;20440;-41
2022/01/21 11:57:27;;;;;;;7.22;2.40;;;;;;;1.85;64.53;96971.31;4974107;28;20051;-44
2022/01/21 12:00:06;;;;;;;8.68;2.60;;;;;;;2.36;62.48;96973.66;4968562;28;20125;-40
2022/01/21 12:02:36;;;;;;;8.30;2.80;;;;;;;2.16;62.37;96950.25;4973427;28;20050;-41
2022/01/21 12:05:07;;;;;;;9.82;2.65;;;;;;;2.63;60.94;96948.75;4973514;28;20551;-44
2022/01/21 12:07:34;;;;;;;5.93;2.38;;;;;;;3.03;60.06;96946.34;4974066;28;20051;-42
2022/01/21 12:10:01;;;;;;;10.50;2.70;;;;;;;2.77;59.83;96944.59;4969222;28;20122;-41
2022/01/21 12:21:00;;;;;;;10.65;3.97;;;;;;;2.10;60.41;96930.69;4963594;28;20432;-44
2022/01/21 12:23:29;;;;;;;7.00;1.80;;;;;;;1.12;61.33;96933.38;4967571;28;20110;-43
2022/01/21 12:26:10;;;;;;;4.85;1.75;;;;;;;1.34;62.08;96940.56;4965852;28;20053;-46
2022/01/21 12:28:43;;;;;;;9.55;2.17;;;;;;;1.24;60.90;96943.91;4981848;28;20138;-49
2022/01/21 12:31:13;;;;;;;4.93;1.85;;;;;;;0.94;64.29;96938.97;4963059;28;20133;-39
2022/01/21 12:34:10;;;;;;;10.70;2.38;;;;;;;1.54;61.85;96932.00;4965762;28;20051;-39
2022/01/21 12:36:44;;;;;;;5.57;2.05;;;;;;;1.11;61.02;96944.28;4962345;28;20129;-39
2022/01/21 12:39:35;;;;;;;5.32;1.90;;;;;;;0.67;63.69;96931.69;4971391;28;20055;-39
2022/01/21 12:42:35;;;;;;;8.10;2.10;;;;;;;0.74;62.53;96928.03;4973036;28;20078;-40
2022/01/21 12:45:08;;;;;;;9.70;2.60;;;;;;;0.74;62.60;96934.16;4964751;28;20070;-41
2022/01/21 12:47:39;;;;;;;5.40;1.92;;;;;;;0.01;62.89;96930.66;4973588;28;20042;-39
2022/01/21 12:50:15;;;;;;;6.10;1.95;;;;;;;0.46;63.57;96921.78;4967211;28;20078;-39
2022/01/21 12:58:19;;;;;;;8.70;2.60;;;;;;;0.97;63.28;96917.16;4970289;28;19953;-39